Time;durP1;ratioP1;P1;durP2;ratioP2;P2;SDS_P1;SDS_P2;PMS_P1;PMS_P2;Temp;Humidity;BMP_temperature;BMP_pressure;BME280_temperature;BME280_humidity;BME280_pressure;Samples;Min_cycle;Max_cycle;Signal;HPM_P1;HPM_P2
2023/10/06 00:01:11;;;;;;;7.82;4.72;;;;;;;14.33;72.59;93684.50;2022892;71;20162;-72
2023/10/06 00:03:10;;;;;;;7.75;4.20;;;;;;;14.46;71.87;93704.47;2021401;71;20610;-73
2023/10/06 00:05:56;;;;;;;8.73;4.20;;;;;;;14.52;71.46;93698.47;2022838;71;20165;-73
2023/10/06 00:08:31;;;;;;;7.68;4.30;;;;;;;14.47;71.60;93705.22;2022249;71;20184;-73
2023/10/06 00:11:10;;;;;;;6.90;4.40;;;;;;;14.46;71.25;93701.63;2022325;71;20157;-73
2023/10/06 00:13:37;;;;;;;7.65;4.45;;;;;;;14.43;71.89;93693.63;2022597;71;20141;-73
2023/10/06 00:16:07;;;;;;;9.63;4.60;;;;;;;14.37;70.28;93688.31;2022211;71;20172;-73
2023/10/06 00:18:36;;;;;;;6.65;4.28;;;;;;;14.49;70.31;93696.88;2022789;71;20168;-73
2023/10/06 00:21:14;;;;;;;8.98;4.53;;;;;;;14.49;71.23;93702.53;2022080;71;20192;-72
2023/10/06 00:23:42;;;;;;;7.00;4.35;;;;;;;14.44;72.39;93698.69;2021998;71;20164;-72
2023/10/06 00:26:16;;;;;;;6.78;4.40;;;;;;;14.27;73.16;93684.84;2021948;71;20157;-73
2023/10/06 00:28:45;;;;;;;9.38;4.40;;;;;;;14.44;72.46;93706.44;2022460;71;20244;-73
2023/10/06 00:31:12;;;;;;;6.70;4.47;;;;;;;14.40;72.63;93706.94;2019296;71;20302;-73
2023/10/06 00:33:41;;;;;;;7.93;4.30;;;;;;;14.35;71.89;93699.53;2021886;71;20237;-73
2023/10/06 00:36:14;;;;;;;8.13;4.18;;;;;;;14.28;72.95;93706.16;2021992;71;20146;-73
2023/10/06 00:38:50;;;;;;;10.65;4.00;;;;;;;14.39;71.54;93708.28;2022481;71;20606;-74
2023/10/06 00:41:20;;;;;;;7.80;4.40;;;;;;;14.32;72.67;93709.25;2021968;71;20160;-73
2023/10/06 00:43:50;;;;;;;8.35;4.35;;;;;;;13.91;74.34;93715.16;2022577;71;20244;-73
2023/10/06 00:46:18;;;;;;;8.13;4.57;;;;;;;13.97;74.15;93715.56;2022780;71;20244;-73
2023/10/06 00:48:53;;;;;;;9.70;4.63;;;;;;;13.92;74.17;93713.06;2022074;71;20145;-72
2023/10/06 00:51:22;;;;;;;9.07;4.55;;;;;;;13.98;73.80;93719.88;2022507;71;20590;-74
2023/10/06 00:53:51;;;;;;;8.40;4.60;;;;;;;14.10;73.18;93725.56;2022423;71;20177;-73
2023/10/06 00:56:23;;;;;;;6.75;4.35;;;;;;;14.17;73.31;93726.69;2021742;71;20173;-72
2023/10/06 00:58:49;;;;;;;9.75;4.53;;;;;;;14.11;73.51;93729.13;2022408;71;20602;-73
2023/10/06 01:01:18;;;;;;;7.57;4.38;;;;;;;14.16;73.53;93725.22;2021447;71;20280;-73
2023/10/06 01:03:48;;;;;;;10.18;4.75;;;;;;;14.08;72.80;93713.38;2021635;71;20169;-72
2023/10/06 01:06:27;;;;;;;6.88;4.32;;;;;;;14.20;71.26;93714.13;2021393;71;20177;-72
2023/10/06 01:09:05;;;;;;;7.90;4.35;;;;;;;14.09;73.04;93709.19;2018314;71;20225;-72
2023/10/06 01:11:43;;;;;;;9.95;4.68;;;;;;;14.14;72.40;93703.16;2015755;71;20154;-72
2023/10/06 01:14:37;;;;;;;7.28;4.28;;;;;;;14.07;73.19;93706.25;2016228;71;20149;-72
2023/10/06 01:17:14;;;;;;;8.45;4.80;;;;;;;14.01;72.98;93703.00;2022332;71;20160;-73
2023/10/06 01:19:47;;;;;;;13.32;4.43;;;;;;;13.98;73.10;93711.38;2022314;71;20149;-73
2023/10/06 01:22:41;;;;;;;;;;;;;;;13.98;73.68;93710.63;2022311;71;20141;-72
2023/10/06 01:25:20;;;;;;;8.80;4.88;;;;;;;13.86;73.29;93716.25;2022478;71;20093;-73
2023/10/06 01:27:50;;;;;;;7.20;4.13;;;;;;;13.97;73.22;93706.31;2021804;71;20169;-72
2023/10/06 01:30:18;;;;;;;6.80;4.40;;;;;;;13.92;73.21;93705.31;2021708;71;20153;-72
2023/10/06 01:32:50;;;;;;;10.07;4.80;;;;;;;13.70;73.86;93692.56;2022364;71;20519;-74
2023/10/06 01:35:18;;;;;;;10.23;4.43;;;;;;;13.90;72.75;93713.69;2019179;71;20384;-74
2023/10/06 01:37:45;;;;;;;6.32;4.25;;;;;;;13.82;73.69;93712.41;2021729;71;20310;-75
2023/10/06 01:42:49;;;;;;;10.05;4.85;;;;;;;13.75;74.66;93716.22;2021648;71;20144;-74
2023/10/06 01:45:21;;;;;;;7.57;4.93;;;;;;;13.85;74.03;93719.69;2021842;71;20181;-74
2023/10/06 01:48:00;;;;;;;10.55;4.82;;;;;;;13.77;74.18;93722.00;2022223;71;20153;-75
2023/10/06 01:50:28;;;;;;;8.52;4.68;;;;;;;13.80;74.27;93715.13;2022387;71;20195;-74
2023/10/06 01:52:55;;;;;;;9.88;5.28;;;;;;;13.80;74.06;93715.84;2021731;71;20169;-74
2023/10/06 01:55:24;;;;;;;6.97;4.65;;;;;;;13.75;73.80;93713.38;2021642;71;20156;-74
2023/10/06 01:57:51;;;;;;;8.20;4.75;;;;;;;13.65;74.45;93711.38;2021993;71;20176;-74
2023/10/06 02:00:26;;;;;;;7.75;4.32;;;;;;;13.75;74.21;93728.25;2021662;71;20153;-74
2023/10/06 02:02:52;;;;;;;10.20;4.35;;;;;;;13.72;74.30;93726.66;2022170;71;20165;-74
2023/10/06 02:05:20;;;;;;;11.25;4.60;;;;;;;13.81;73.03;93731.47;2021616;71;20227;-73
2023/10/06 02:07:46;;;;;;;9.52;4.60;;;;;;;13.76;73.76;93737.50;2022192;71;20168;-73
2023/10/06 02:10:15;;;;;;;9.77;4.80;;;;;;;13.69;73.90;93710.88;2022229;71;20157;-74
2023/10/06 02:12:42;;;;;;;10.50;4.47;;;;;;;13.65;74.72;93710.59;2022009;71;20159;-75
2023/10/06 02:15:10;;;;;;;8.00;4.90;;;;;;;13.64;74.79;93709.88;2021530;71;20160;-74
2023/10/06 02:17:37;;;;;;;8.10;4.30;;;;;;;13.53;74.94;93721.88;2021553;71;20184;-74
2023/10/06 02:20:46;;;;;;;6.53;4.57;;;;;;;13.53;74.16;93715.47;2022144;71;20241;-74
2023/10/06 02:23:03;;;;;;;9.25;4.53;;;;;;;13.47;73.55;93707.34;2020746;71;20165;-75
2023/10/06 02:25:29;;;;;;;8.30;4.30;;;;;;;13.37;72.91;93715.13;2022009;71;20142;-74
2023/10/06 02:27:54;;;;;;;9.32;4.65;;;;;;;13.32;74.99;93721.88;2021645;71;20158;-75
2023/10/06 02:30:33;;;;;;;8.60;4.45;;;;;;;13.29;74.42;93711.78;2022329;71;20617;-73
2023/10/06 02:33:00;;;;;;;8.07;4.15;;;;;;;13.25;74.59;93709.41;2022355;71;20228;-74
2023/10/06 02:35:26;;;;;;;7.53;4.20;;;;;;;13.27;74.29;93718.03;2022224;71;20169;-74
2023/10/06 02:37:51;;;;;;;8.98;4.47;;;;;;;13.19;74.59;93708.97;2022254;71;20146;-75
2023/10/06 02:40:17;;;;;;;8.45;4.75;;;;;;;13.14;74.84;93707.22;2022345;71;20134;-74
2023/10/06 02:42:52;;;;;;;7.68;4.50;;;;;;;13.18;74.13;93716.72;2021520;71;20599;-72
2023/10/06 02:45:20;;;;;;;10.15;4.63;;;;;;;13.26;74.05;93713.72;2021613;71;20264;-73
2023/10/06 02:47:51;;;;;;;8.25;4.57;;;;;;;13.12;73.87;93695.78;2021817;71;20626;-73
2023/10/06 02:50:20;;;;;;;6.30;4.03;;;;;;;13.14;74.20;93722.09;2021825;71;20156;-73
2023/10/06 02:52:47;;;;;;;6.65;4.25;;;;;;;13.10;74.04;93713.34;2021800;71;20222;-73
2023/10/06 02:55:19;;;;;;;7.90;4.38;;;;;;;13.04;74.37;93712.19;2021865;71;20161;-73
2023/10/06 02:57:50;;;;;;;7.85;4.35;;;;;;;12.95;74.97;93722.19;2019254;71;20506;-73
2023/10/06 03:03:02;;;;;;;8.00;4.47;;;;;;;12.94;74.96;93718.63;2022390;71;20145;-73
2023/10/06 03:05:32;;;;;;;7.18;4.15;;;;;;;12.91;74.50;93717.00;2022367;71;20176;-73
2023/10/06 03:08:08;;;;;;;7.65;4.18;;;;;;;12.91;74.53;93705.69;2021870;71;20154;-73
2023/10/06 03:10:42;;;;;;;7.78;4.28;;;;;;;12.95;74.02;93725.03;2021887;71;20157;-74
2023/10/06 03:13:15;;;;;;;10.02;4.32;;;;;;;12.77;74.22;93724.50;2021827;71;20594;-73
2023/10/06 03:15:45;;;;;;;;;;;;;;;12.73;75.41;93722.16;2022256;71;20149;-74
2023/10/06 03:18:13;;;;;;;8.68;4.57;;;;;;;12.65;75.65;93720.88;2022376;71;20430;-73
2023/10/06 03:20:49;;;;;;;7.60;4.30;;;;;;;12.65;74.98;93721.59;2021833;71;20145;-74
2023/10/06 03:23:38;;;;;;;7.72;4.13;;;;;;;12.59;75.25;93726.81;2019004;71;20176;-74
2023/10/06 03:26:11;;;;;;;8.00;4.70;;;;;;;12.47;75.77;93720.34;2021935;71;20164;-74
2023/10/06 03:28:38;;;;;;;7.30;4.50;;;;;;;12.39;76.35;93722.59;2022915;71;20142;-73
2023/10/06 03:33:57;;;;;;;7.63;3.95;;;;;;;12.46;75.24;93728.06;2021117;71;20157;-73
2023/10/06 03:36:45;;;;;;;9.23;4.57;;;;;;;12.45;74.73;93726.56;2022344;71;20180;-73
2023/10/06 03:39:13;;;;;;;7.07;4.05;;;;;;;12.45;74.75;93735.03;2022440;71;20150;-75
2023/10/06 03:41:44;;;;;;;8.80;4.10;;;;;;;12.33;75.50;93736.28;2022402;71;20161;-74
2023/10/06 03:44:11;;;;;;;9.52;4.65;;;;;;;12.37;75.11;93740.13;2025377;71;20204;-74
2023/10/06 03:46:38;;;;;;;8.80;3.95;;;;;;;12.35;74.50;93747.72;2022764;71;20156;-73
2023/10/06 03:49:05;;;;;;;8.07;4.47;;;;;;;11.98;76.88;93750.75;2022745;71;20156;-74
2023/10/06 03:51:40;;;;;;;8.98;4.75;;;;;;;12.13;76.23;93744.03;2022738;71;20634;-74
2023/10/06 03:54:08;;;;;;;10.45;4.70;;;;;;;12.15;75.36;93744.19;2019920;71;20206;-74
2023/10/06 03:56:33;;;;;;;8.40;4.32;;;;;;;12.07;75.10;93735.13;2022954;71;20138;-73
2023/10/06 03:59:12;;;;;;;7.10;4.50;;;;;;;12.09;75.53;93747.28;2023184;71;20286;-73
2023/10/06 04:01:38;;;;;;;8.02;4.30;;;;;;;12.07;74.42;93746.44;2022832;71;20907;-73
2023/10/06 04:04:04;;;;;;;7.32;4.35;;;;;;;12.03;74.73;93744.03;2023150;71;20152;-73
2023/10/06 04:06:31;;;;;;;7.65;4.32;;;;;;;11.95;74.55;93744.19;2022483;71;20137;-73
2023/10/06 04:08:59;;;;;;;7.88;4.40;;;;;;;11.88;75.47;93750.75;2019961;71;20594;-73
2023/10/06 04:11:29;;;;;;;6.75;4.35;;;;;;;11.90;76.25;93752.97;2022367;71;20126;-73
2023/10/06 04:13:55;;;;;;;10.75;4.95;;;;;;;11.87;75.66;93751.34;2019658;71;20166;-73
2023/10/06 04:16:23;;;;;;;7.93;4.40;;;;;;;11.82;75.01;93741.06;2022690;71;20609;-73
2023/10/06 04:18:49;;;;;;;11.13;4.60;;;;;;;11.79;74.90;93742.25;2022743;71;20257;-73
2023/10/06 04:21:20;;;;;;;9.95;4.43;;;;;;;11.83;74.44;93751.06;2022752;71;20154;-73
2023/10/06 04:23:45;;;;;;;10.63;4.55;;;;;;;11.71;75.30;93748.06;2022942;71;20153;-74
2023/10/06 04:26:14;;;;;;;7.57;4.30;;;;;;;11.71;75.49;93745.97;2022824;71;20284;-74
2023/10/06 04:28:42;;;;;;;9.18;4.70;;;;;;;11.64;75.60;93741.22;2022163;71;20231;-74
2023/10/06 04:31:07;;;;;;;10.25;4.35;;;;;;;11.64;75.15;93749.69;2022756;71;20150;-74
2023/10/06 04:33:33;;;;;;;7.97;4.38;;;;;;;11.59;74.98;93745.09;2022808;71;20152;-75
2023/10/06 04:36:08;;;;;;;11.18;4.97;;;;;;;11.48;75.82;93745.66;2022747;71;20220;-74
2023/10/06 04:38:38;;;;;;;8.95;4.53;;;;;;;11.57;75.33;93749.84;2023002;71;20142;-74
2023/10/06 04:41:08;;;;;;;9.05;5.32;;;;;;;11.55;75.70;93750.44;2022269;71;20141;-73
2023/10/06 04:43:35;;;;;;;7.30;4.50;;;;;;;11.55;75.60;93746.88;2022659;71;20145;-73
2023/10/06 04:46:05;;;;;;;9.70;4.85;;;;;;;11.55;75.43;93750.44;2022847;71;20173;-74
2023/10/06 04:48:36;;;;;;;9.82;5.28;;;;;;;11.53;75.37;93746.72;2022962;71;20252;-74
2023/10/06 04:51:04;;;;;;;9.50;5.75;;;;;;;11.47;75.61;93749.81;2022803;71;20641;-74
2023/10/06 04:53:36;;;;;;;11.23;6.20;;;;;;;11.39;75.66;93740.75;2022957;71;20145;-74
2023/10/06 04:56:08;;;;;;;10.80;5.60;;;;;;;11.40;75.21;93745.78;2022720;71;20148;-74
2023/10/06 04:58:42;;;;;;;9.63;5.70;;;;;;;11.34;75.27;93733.34;2019413;71;20609;-74
2023/10/06 05:01:07;;;;;;;9.65;5.20;;;;;;;11.29;76.01;93746.38;2022551;71;20664;-72
2023/10/06 05:03:45;;;;;;;9.65;5.70;;;;;;;11.33;74.85;93752.34;2022809;71;20149;-72
2023/10/06 05:06:13;;;;;;;12.88;5.32;;;;;;;11.27;75.37;93743.44;2022872;71;20569;-73
2023/10/06 05:08:40;;;;;;;8.15;5.30;;;;;;;11.27;74.44;93748.31;2022752;71;20153;-73
2023/10/06 05:11:06;;;;;;;10.30;5.32;;;;;;;11.18;75.20;93746.97;2022810;71;20162;-74
2023/10/06 05:13:34;;;;;;;10.85;5.28;;;;;;;11.18;75.13;93752.59;2022670;71;20157;-74
2023/10/06 05:16:01;;;;;;;8.68;4.90;;;;;;;11.02;75.50;93751.38;2022728;71;20157;-74
2023/10/06 05:18:27;;;;;;;13.63;4.72;;;;;;;11.10;75.23;93760.44;2022113;71;20653;-74
2023/10/06 05:20:52;;;;;;;9.65;5.00;;;;;;;10.85;75.19;93727.59;2021974;71;20150;-73
2023/10/06 05:23:20;;;;;;;8.60;4.65;;;;;;;11.06;74.89;93748.88;2022587;71;20173;-73
2023/10/06 05:25:46;;;;;;;10.55;5.15;;;;;;;11.11;74.87;93753.47;2022705;71;20292;-74
2023/10/06 05:28:16;;;;;;;10.48;5.45;;;;;;;11.05;75.04;93753.03;2022037;71;20630;-74
2023/10/06 05:30:43;;;;;;;12.82;5.93;;;;;;;11.02;74.75;93752.13;2019419;71;20611;-73
2023/10/06 05:33:09;;;;;;;9.50;4.88;;;;;;;11.07;73.92;93758.81;2022098;71;20229;-74
2023/10/06 05:35:41;;;;;;;12.05;5.78;;;;;;;11.12;73.57;93755.69;2022847;71;20153;-76
2023/10/06 05:38:15;;;;;;;12.40;6.10;;;;;;;11.07;73.87;93758.81;2022822;71;20152;-73
2023/10/06 05:40:46;;;;;;;9.63;5.55;;;;;;;10.90;74.54;93760.41;2022511;71;20181;-73
2023/10/06 05:43:12;;;;;;;10.60;5.60;;;;;;;11.00;74.35;93768.13;2022429;71;20215;-73
2023/10/06 05:45:41;;;;;;;9.75;5.38;;;;;;;11.09;72.58;93770.97;2022588;71;20653;-74
2023/10/06 05:48:15;;;;;;;10.18;5.55;;;;;;;11.09;73.17;93781.50;2022633;71;20595;-75
2023/10/06 05:50:41;;;;;;;11.32;6.15;;;;;;;11.04;73.84;93777.66;2022689;71;20157;-74
2023/10/06 05:53:12;;;;;;;15.02;7.80;;;;;;;11.06;73.40;93785.50;2022590;71;20140;-73
2023/10/06 05:55:41;;;;;;;9.63;5.07;;;;;;;11.04;73.44;93785.34;2022669;71;20146;-74
2023/10/06 05:58:14;;;;;;;12.98;4.85;;;;;;;11.10;73.27;93780.91;2022579;71;20156;-74
2023/10/06 06:00:50;;;;;;;;;;;;;;;11.14;73.05;93791.75;2022865;71;20153;-74
2023/10/06 06:03:20;;;;;;;11.57;4.40;;;;;;;11.13;72.92;93787.44;2022528;71;20045;-73
2023/10/06 06:05:52;;;;;;;7.10;3.67;;;;;;;11.19;72.48;93790.72;2021863;71;20233;-73
2023/10/06 06:08:17;;;;;;;7.82;4.13;;;;;;;11.15;71.88;93785.53;2022393;71;20141;-73
2023/10/06 06:10:45;;;;;;;6.45;3.92;;;;;;;11.16;71.47;93795.47;2022662;71;20163;-74
2023/10/06 06:13:13;;;;;;;9.00;6.05;;;;;;;11.20;71.67;93798.59;2022417;71;20156;-74
2023/10/06 06:15:40;;;;;;;12.05;6.45;;;;;;;11.20;71.43;93792.94;2022547;71;20181;-73
2023/10/06 06:18:05;;;;;;;9.48;4.88;;;;;;;11.23;71.08;93795.94;2022478;71;20256;-73
2023/10/06 06:20:31;;;;;;;9.93;4.57;;;;;;;11.28;70.87;93804.09;2022703;71;20615;-74
2023/10/06 06:23:02;;;;;;;8.60;4.15;;;;;;;11.22;71.10;93800.81;2021879;71;20237;-74
2023/10/06 06:25:29;;;;;;;8.75;4.05;;;;;;;11.24;70.36;93800.25;2022588;71;20218;-73
2023/10/06 06:27:58;;;;;;;7.68;4.20;;;;;;;11.38;69.04;93796.41;2021994;71;20614;-73
2023/10/06 06:30:25;;;;;;;8.18;4.25;;;;;;;11.40;68.99;93802.19;2022943;71;20193;-73
2023/10/06 06:32:55;;;;;;;7.38;3.90;;;;;;;11.51;68.87;93803.72;2019390;71;20150;-73
2023/10/06 06:35:22;;;;;;;8.68;3.95;;;;;;;11.53;69.28;93805.94;2022502;71;20295;-73
2023/10/06 06:37:52;;;;;;;13.85;5.18;;;;;;;11.48;69.68;93804.16;2022634;71;20154;-74
2023/10/06 06:40:19;;;;;;;8.85;5.57;;;;;;;11.37;70.53;93811.84;2022618;71;20301;-74
2023/10/06 06:42:47;;;;;;;12.02;5.80;;;;;;;11.40;70.56;93813.47;2022483;71;20157;-73
2023/10/06 06:45:13;;;;;;;8.50;5.32;;;;;;;11.40;70.91;93812.72;2021988;71;20142;-72
2023/10/06 06:47:41;;;;;;;7.95;4.63;;;;;;;11.32;70.98;93815.69;2022441;71;20500;-73
2023/10/06 06:50:09;;;;;;;15.70;7.93;;;;;;;11.37;70.51;93811.84;2022613;71;20659;-72
2023/10/06 06:52:36;;;;;;;7.93;4.38;;;;;;;11.43;70.01;93803.09;2022604;71;20153;-72
2023/10/06 06:55:01;;;;;;;8.73;4.35;;;;;;;11.43;69.77;93814.38;2022656;71;20209;-73
2023/10/06 06:57:27;;;;;;;8.13;3.70;;;;;;;11.47;69.57;93813.94;2022054;71;20138;-71
2023/10/06 06:59:52;;;;;;;8.38;3.83;;;;;;;11.55;69.28;93818.13;2022469;71;20141;-74
2023/10/06 07:02:20;;;;;;;8.45;4.15;;;;;;;11.37;68.87;93811.84;2021733;71;20646;-72
2023/10/06 07:04:47;;;;;;;9.23;4.05;;;;;;;11.43;68.51;93803.84;2022492;71;20209;-72
2023/10/06 07:07:13;;;;;;;10.18;4.63;;;;;;;11.51;69.10;93823.44;2021989;71;20587;-72
2023/10/06 07:09:38;;;;;;;9.90;4.45;;;;;;;11.52;69.01;93824.94;2022549;71;20237;-73
2023/10/06 07:12:04;;;;;;;8.40;4.13;;;;;;;11.54;69.21;93822.25;2022488;71;20118;-74
2023/10/06 07:14:30;;;;;;;9.05;5.20;;;;;;;11.45;69.60;93822.97;2022539;71;20148;-72
2023/10/06 07:16:56;;;;;;;12.50;4.10;;;;;;;11.51;69.43;93822.72;2022265;71;20534;-72
2023/10/06 07:19:23;;;;;;;9.93;4.25;;;;;;;11.49;69.81;93826.09;2022473;71;20145;-73
2023/10/06 07:21:49;;;;;;;8.95;4.80;;;;;;;11.47;69.44;93820.31;2022463;71;20180;-73
2023/10/06 07:24:15;;;;;;;8.43;4.45;;;;;;;11.54;69.88;93819.44;2022479;71;20206;-74
2023/10/06 07:26:43;;;;;;;9.73;4.35;;;;;;;11.61;69.87;93821.38;2022890;71;20181;-73
2023/10/06 07:29:09;;;;;;;10.25;5.03;;;;;;;11.38;70.03;93824.59;2022164;71;20145;-73
2023/10/06 07:31:35;;;;;;;9.00;5.03;;;;;;;11.53;69.07;93817.94;2022204;71;20145;-74
2023/10/06 07:34:05;;;;;;;8.88;4.15;;;;;;;11.58;69.74;93827.47;2022428;71;20157;-73
2023/10/06 07:36:35;;;;;;;10.27;5.00;;;;;;;11.49;69.95;93825.38;2022546;71;20150;-74
2023/10/06 07:39:03;;;;;;;9.63;4.47;;;;;;;11.54;69.97;93829.97;2022064;71;20257;-73
2023/10/06 07:41:29;;;;;;;9.10;4.45;;;;;;;11.57;70.42;93823.91;2022612;71;20157;-73
2023/10/06 07:43:56;;;;;;;8.25;4.80;;;;;;;11.48;70.42;93818.97;2022530;71;20551;-72
2023/10/06 07:46:22;;;;;;;8.43;5.00;;;;;;;11.86;70.58;93826.03;2022087;71;20211;-73
2023/10/06 07:48:50;;;;;;;14.35;6.20;;;;;;;12.28;72.35;93825.59;2022730;71;20247;-74
2023/10/06 07:51:16;;;;;;;14.93;6.57;;;;;;;12.61;70.67;93828.66;2022462;71;20621;-73
2023/10/06 07:53:43;;;;;;;12.77;6.07;;;;;;;12.86;69.70;93827.56;2022585;71;20154;-73
2023/10/06 07:56:09;;;;;;;15.60;5.93;;;;;;;13.09;68.02;93827.75;2022587;71;20181;-72
2023/10/06 07:58:41;;;;;;;13.25;6.13;;;;;;;13.45;69.35;93828.81;2022465;71;20155;-71
2023/10/06 08:01:08;;;;;;;11.77;6.13;;;;;;;13.83;67.98;93827.09;2019419;71;20157;-72
2023/10/06 08:03:41;;;;;;;11.75;5.45;;;;;;;13.71;67.75;93801.56;2019459;71;20153;-72
2023/10/06 08:06:10;;;;;;;14.40;6.22;;;;;;;14.11;66.69;93817.66;2019452;71;20146;-73
2023/10/06 08:08:37;;;;;;;16.27;6.63;;;;;;;14.53;65.31;93818.97;2019387;71;20142;-72
2023/10/06 08:11:06;;;;;;;12.93;5.72;;;;;;;14.86;65.03;93824.59;2019421;71;20157;-72
2023/10/06 08:13:35;;;;;;;11.45;5.57;;;;;;;15.21;64.20;93821.06;2019493;71;20161;-72
2023/10/06 08:16:02;;;;;;;10.65;5.50;;;;;;;15.78;61.83;93820.94;2019920;71;20266;-72
2023/10/06 08:18:31;;;;;;;9.57;5.05;;;;;;;15.82;60.55;93821.94;2019643;71;20630;-72
2023/10/06 08:21:00;;;;;;;8.90;5.05;;;;;;;16.08;60.68;93821.97;2019866;71;20138;-72
2023/10/06 08:23:27;;;;;;;13.23;5.22;;;;;;;16.65;57.79;93822.41;2019727;71;20189;-73
2023/10/06 08:25:56;;;;;;;9.27;4.78;;;;;;;16.84;58.04;93816.38;2019860;71;20166;-72
2023/10/06 08:28:24;;;;;;;7.10;4.22;;;;;;;16.55;56.97;93814.03;2019667;71;20240;-72
2023/10/06 08:30:50;;;;;;;8.52;4.03;;;;;;;16.60;56.21;93815.00;2019838;71;20189;-72
2023/10/06 08:33:16;;;;;;;8.82;4.10;;;;;;;17.22;55.96;93820.59;2019668;71;20162;-73
2023/10/06 08:35:41;;;;;;;7.00;4.07;;;;;;;16.94;54.51;93811.25;2020327;71;20673;-71
2023/10/06 08:38:10;;;;;;;7.18;3.88;;;;;;;17.62;54.45;93815.59;2019882;71;20158;-72
2023/10/06 08:40:37;;;;;;;9.50;3.85;;;;;;;17.81;53.99;93810.88;2019700;71;20177;-72
2023/10/06 08:43:06;;;;;;;6.07;4.00;;;;;;;18.01;52.06;93821.22;2019842;71;20150;-74
2023/10/06 08:45:40;;;;;;;7.95;4.20;;;;;;;18.59;50.96;93812.63;2019461;71;20142;-73
2023/10/06 08:48:09;;;;;;;8.70;4.38;;;;;;;18.67;50.98;93815.88;2020264;71;20145;-73
2023/10/06 08:50:37;;;;;;;6.43;3.97;;;;;;;18.53;50.96;93810.94;2020132;71;20156;-73
2023/10/06 08:53:09;;;;;;;8.60;4.55;;;;;;;18.79;51.57;93802.25;2019700;71;20234;-73
2023/10/06 08:55:37;;;;;;;;;;;;;;;18.98;50.75;93800.97;2020092;71;20161;-73
2023/10/06 08:58:04;;;;;;;7.43;3.88;;;;;;;19.73;49.54;93800.84;2019817;71;20057;-73
2023/10/06 09:00:34;;;;;;;10.68;4.55;;;;;;;20.01;48.96;93792.75;2019911;71;20177;-74
2023/10/06 09:03:07;;;;;;;7.45;4.10;;;;;;;20.05;48.37;93790.81;2019875;71;20185;-73
2023/10/06 09:05:43;;;;;;;7.10;4.28;;;;;;;19.73;48.04;93786.56;2019454;71;20576;-75
2023/10/06 09:08:14;;;;;;;7.28;3.97;;;;;;;19.77;47.62;93787.47;2019885;71;20189;-75
2023/10/06 09:10:54;;;;;;;6.38;4.10;;;;;;;19.63;48.17;93775.41;2019603;71;20142;-74
2023/10/06 09:13:22;;;;;;;6.78;3.88;;;;;;;20.44;46.74;93766.72;2019655;71;20562;-74
2023/10/06 09:15:59;;;;;;;7.20;3.80;;;;;;;20.83;45.90;93768.28;2019570;71;20601;-75
2023/10/06 09:18:31;;;;;;;6.57;3.45;;;;;;;21.37;44.31;93771.81;2019678;71;20157;-75
2023/10/06 09:21:15;;;;;;;6.28;3.83;;;;;;;21.87;45.27;93771.47;2019900;71;20154;-75
2023/10/06 09:23:43;;;;;;;9.88;4.07;;;;;;;21.09;45.55;93765.72;2018954;71;20661;-75
2023/10/06 09:26:11;;;;;;;10.88;4.10;;;;;;;21.76;46.10;93779.72;2019623;71;20171;-76
2023/10/06 09:28:55;;;;;;;5.60;3.50;;;;;;;22.41;44.46;93778.41;2018931;71;20146;-76
2023/10/06 09:31:44;;;;;;;6.50;3.83;;;;;;;23.40;41.77;93771.50;2019594;71;20153;-77
2023/10/06 09:34:11;;;;;;;4.80;3.42;;;;;;;23.95;41.04;93769.50;2019792;71;20161;-75
2023/10/06 09:36:38;;;;;;;6.10;3.90;;;;;;;22.66;42.61;93762.00;2019749;71;20173;-76
2023/10/06 09:39:06;;;;;;;7.90;3.80;;;;;;;22.92;42.38;93760.00;2019834;71;20154;-77
2023/10/06 09:41:34;;;;;;;6.72;3.38;;;;;;;23.19;42.09;93757.94;2019631;71;20273;-77
2023/10/06 09:44:09;;;;;;;5.97;3.47;;;;;;;22.10;43.09;93753.66;2019373;71;20173;-77
2023/10/06 09:46:35;;;;;;;8.45;3.75;;;;;;;22.93;43.64;93740.63;2019171;71;20214;-76
2023/10/06 09:49:09;;;;;;;5.85;3.60;;;;;;;23.81;42.21;93743.97;2019685;71;20618;-78
2023/10/06 09:51:38;;;;;;;7.00;3.65;;;;;;;24.55;40.13;93740.91;2019040;71;20154;-76
2023/10/06 09:54:09;;;;;;;9.85;3.83;;;;;;;24.75;38.04;93735.66;2020125;71;20260;-77
2023/10/06 09:56:36;;;;;;;7.68;3.97;;;;;;;24.31;37.98;93744.59;2020128;71;20702;-76
2023/10/06 09:59:07;;;;;;;6.57;3.60;;;;;;;25.19;38.54;93734.50;2019699;71;20211;-76
2023/10/06 10:01:35;;;;;;;5.22;3.60;;;;;;;25.40;36.37;93727.06;2019823;71;20206;-76
2023/10/06 10:04:01;;;;;;;7.63;3.35;;;;;;;25.86;37.20;93730.19;2019753;71;20184;-76
2023/10/06 10:06:27;;;;;;;4.82;3.33;;;;;;;25.78;36.04;93719.22;2020084;71;20210;-75
2023/10/06 10:08:54;;;;;;;8.07;3.72;;;;;;;26.72;37.17;93720.22;2019938;71;20153;-76
2023/10/06 10:11:29;;;;;;;4.85;3.40;;;;;;;26.88;34.62;93720.47;2019992;71;20153;-76
2023/10/06 10:14:02;;;;;;;5.40;3.50;;;;;;;26.53;34.99;93719.94;2020469;71;20260;-75
2023/10/06 10:16:56;;;;;;;5.15;3.60;;;;;;;27.83;33.46;93721.13;2017998;71;20772;-76
2023/10/06 10:19:26;;;;;;;5.85;3.53;;;;;;;28.36;32.07;93707.28;2022023;71;20145;-73
2023/10/06 10:21:54;;;;;;;5.38;3.25;;;;;;;27.51;32.13;93709.84;2022036;71;20149;-74
2023/10/06 10:24:20;;;;;;;6.15;3.30;;;;;;;28.25;32.13;93716.53;2021437;71;20189;-77
2023/10/06 10:26:48;;;;;;;7.43;3.50;;;;;;;29.16;31.65;93713.03;2021303;71;20661;-76
2023/10/06 10:29:15;;;;;;;4.20;3.17;;;;;;;29.78;31.12;93711.94;2021920;71;20525;-77
2023/10/06 10:31:51;;;;;;;4.72;3.33;;;;;;;29.48;31.03;93713.22;2022223;71;20240;-74
2023/10/06 10:34:21;;;;;;;7.03;3.35;;;;;;;28.58;30.19;93703.13;2022236;71;20179;-74
2023/10/06 10:37:05;;;;;;;5.45;3.38;;;;;;;31.14;30.03;93703.50;2022176;71;20238;-75
2023/10/06 10:39:48;;;;;;;6.50;4.00;;;;;;;30.91;29.35;93702.09;2022390;71;20137;-75
2023/10/06 10:42:21;;;;;;;7.85;3.30;;;;;;;31.92;29.02;93700.47;2021913;71;20137;-74
2023/10/06 10:45:07;;;;;;;4.40;3.30;;;;;;;31.38;26.64;93693.31;2021421;71;20252;-75
2023/10/06 10:47:33;;;;;;;5.50;3.08;;;;;;;29.61;30.69;93682.16;2021741;71;20522;-76
2023/10/06 10:49:58;;;;;;;5.40;3.30;;;;;;;31.64;29.08;93684.53;2022017;71;20670;-74
2023/10/06 10:52:25;;;;;;;6.22;2.90;;;;;;;34.03;27.17;93682.78;2022028;71;20149;-74
2023/10/06 10:54:54;;;;;;;8.68;4.72;;;;;;;32.34;27.02;93681.31;2021428;71;20256;-73
2023/10/06 10:57:21;;;;;;;3.70;2.97;;;;;;;34.20;25.42;93680.38;2021104;71;20145;-74
2023/10/06 11:00:00;;;;;;;4.45;3.60;;;;;;;33.95;24.77;93676.28;2021519;71;20134;-74
2023/10/06 11:03:00;;;;;;;6.80;3.70;;;;;;;34.20;24.29;93679.66;2021843;71;20146;-74
2023/10/06 11:05:26;;;;;;;5.90;3.00;;;;;;;34.48;24.81;93672.72;2022150;71;20161;-74
2023/10/06 11:08:00;;;;;;;4.20;3.17;;;;;;;36.61;22.77;93679.13;2019030;71;20607;-74
2023/10/06 11:10:27;;;;;;;6.65;4.60;;;;;;;32.72;25.20;93662.16;2018951;71;20252;-74
2023/10/06 11:13:31;;;;;;;4.78;2.85;;;;;;;37.72;21.98;93663.19;2018654;71;20169;-73
2023/10/06 11:16:04;;;;;;;4.55;3.05;;;;;;;38.69;20.58;93667.75;2008404;71;20155;-76
2023/10/06 11:18:35;;;;;;;5.15;2.70;;;;;;;39.36;21.12;93644.28;2008342;71;20174;-76
2023/10/06 11:21:00;;;;;;;5.25;3.10;;;;;;;40.68;19.80;93646.88;2008276;71;20201;-74
2023/10/06 11:23:41;;;;;;;5.00;2.88;;;;;;;42.83;18.81;93651.63;2008303;71;20261;-76
2023/10/06 11:26:08;;;;;;;3.60;2.85;;;;;;;41.70;18.56;93640.47;2008506;71;20157;-74
2023/10/06 11:28:41;;;;;;;4.70;2.50;;;;;;;40.12;19.58;93630.56;2008300;71;20159;-73
2023/10/06 11:31:11;;;;;;;4.40;2.92;;;;;;;43.18;19.04;93635.19;2005855;71;20216;-73
2023/10/06 11:33:37;;;;;;;4.57;2.50;;;;;;;42.22;18.72;93630.81;2008299;71;20652;-74
2023/10/06 11:36:04;;;;;;;4.82;2.63;;;;;;;44.22;17.90;93626.16;2008431;71;20143;-76
2023/10/06 11:38:30;;;;;;;4.00;2.80;;;;;;;43.89;17.27;93625.63;2008312;71;20308;-75
2023/10/06 11:40:57;;;;;;;4.00;2.88;;;;;;;43.75;18.43;93610.81;2008146;71;20198;-75
2023/10/06 11:43:23;;;;;;;3.38;2.75;;;;;;;42.46;18.55;93601.63;2008874;71;20208;-74
2023/10/06 11:46:01;;;;;;;3.70;2.60;;;;;;;42.59;18.27;93600.22;2009177;71;20233;-76
2023/10/06 11:48:33;;;;;;;3.45;2.70;;;;;;;44.48;17.50;93597.31;2021207;71;20616;-76
2023/10/06 11:51:22;;;;;;;4.20;2.65;;;;;;;45.86;17.11;93604.22;2018977;71;20159;-74
2023/10/06 11:53:58;;;;;;;4.28;2.80;;;;;;;46.22;16.26;93599.84;2015091;71;20205;-76